sensor_id;sensor_type;location;lat;lon;timestamp;pressure;altitude;pressure_sealevel;temperature;humidity
29359;BME280;16347;53.232;6.556;2024-02-16T00:02:11;100927.84;;;13.80;71.07
29359;BME280;16347;53.232;6.556;2024-02-16T00:04:38;100917.44;;;13.84;70.86
29359;BME280;16347;53.232;6.556;2024-02-16T00:07:06;100927.78;;;13.66;70.73
29359;BME280;16347;53.232;6.556;2024-02-16T00:09:34;100921.59;;;13.72;70.59
29359;BME280;16347;53.232;6.556;2024-02-16T00:12:03;100931.31;;;13.74;70.37
29359;BME280;16347;53.232;6.556;2024-02-16T00:14:31;100923.97;;;13.75;70.32
29359;BME280;16347;53.232;6.556;2024-02-16T00:17:00;100919.38;;;13.67;70.46
29359;BME280;16347;53.232;6.556;2024-02-16T00:19:28;100924.91;;;13.59;70.12
29359;BME280;16347;53.232;6.556;2024-02-16T00:21:56;100910.94;;;13.46;70.48
29359;BME280;16347;53.232;6.556;2024-02-16T00:24:24;100903.25;;;13.50;70.71
29359;BME280;16347;53.232;6.556;2024-02-16T00:26:52;100906.94;;;13.57;70.46
29359;BME280;16347;53.232;6.556;2024-02-16T00:29:19;100902.91;;;13.53;70.16
29359;BME280;16347;53.232;6.556;2024-02-16T00:31:47;100903.06;;;13.51;70.35
29359;BME280;16347;53.232;6.556;2024-02-16T00:34:17;100901.34;;;13.50;70.38
29359;BME280;16347;53.232;6.556;2024-02-16T00:36:45;100892.28;;;13.58;70.33
29359;BME280;16347;53.232;6.556;2024-02-16T00:39:12;100894.47;;;13.62;69.79
29359;BME280;16347;53.232;6.556;2024-02-16T00:41:40;100886.53;;;13.45;70.07
29359;BME280;16347;53.232;6.556;2024-02-16T00:44:08;100894.56;;;13.46;69.98
29359;BME280;16347;53.232;6.556;2024-02-16T00:46:36;100895.59;;;13.37;70.16
29359;BME280;16347;53.232;6.556;2024-02-16T00:49:04;100886.38;;;13.38;70.17
29359;BME280;16347;53.232;6.556;2024-02-16T00:51:34;100887.03;;;13.48;69.86
29359;BME280;16347;53.232;6.556;2024-02-16T00:54:02;100884.59;;;13.53;69.46
29359;BME280;16347;53.232;6.556;2024-02-16T00:56:30;100885.50;;;13.46;70.04
29359;BME280;16347;53.232;6.556;2024-02-16T00:58:58;100887.59;;;13.35;70.18
29359;BME280;16347;53.232;6.556;2024-02-16T01:01:26;100883.31;;;13.33;69.93
29359;BME280;16347;53.232;6.556;2024-02-16T01:03:53;100880.91;;;13.38;70.08
29359;BME280;16347;53.232;6.556;2024-02-16T01:06:21;100876.63;;;13.44;69.83
29359;BME280;16347;53.232;6.556;2024-02-16T01:08:51;100876.81;;;13.34;69.96
29359;BME280;16347;53.232;6.556;2024-02-16T01:11:18;100871.06;;;13.29;70.05
29359;BME280;16347;53.232;6.556;2024-02-16T01:13:47;100866.03;;;13.41;69.85
29359;BME280;16347;53.232;6.556;2024-02-16T01:16:15;100862.06;;;13.51;69.56
29359;BME280;16347;53.232;6.556;2024-02-16T01:18:44;100864.66;;;13.45;69.32
29359;BME280;16347;53.232;6.556;2024-02-16T01:21:12;100861.78;;;13.38;69.28
29359;BME280;16347;53.232;6.556;2024-02-16T01:23:40;100864.03;;;13.26;70.00
29359;BME280;16347;53.232;6.556;2024-02-16T01:26:09;100851.38;;;13.33;69.54
29359;BME280;16347;53.232;6.556;2024-02-16T01:28:37;100862.66;;;13.39;69.27
29359;BME280;16347;53.232;6.556;2024-02-16T01:31:05;100859.94;;;13.30;69.33
29359;BME280;16347;53.232;6.556;2024-02-16T01:33:33;100855.16;;;13.32;68.92
29359;BME280;16347;53.232;6.556;2024-02-16T01:36:03;100859.78;;;13.24;69.16
29359;BME280;16347;53.232;6.556;2024-02-16T01:38:31;100857.91;;;13.24;69.17
29359;BME280;16347;53.232;6.556;2024-02-16T01:40:58;100845.13;;;13.17;69.02
29359;BME280;16347;53.232;6.556;2024-02-16T01:43:28;100859.63;;;13.17;69.51
29359;BME280;16347;53.232;6.556;2024-02-16T01:45:56;100847.91;;;13.09;69.55
29359;BME280;16347;53.232;6.556;2024-02-16T01:48:26;100848.22;;;13.14;69.75
29359;BME280;16347;53.232;6.556;2024-02-16T01:50:54;100845.69;;;13.12;69.71
29359;BME280;16347;53.232;6.556;2024-02-16T01:53:23;100849.88;;;13.23;69.39
29359;BME280;16347;53.232;6.556;2024-02-16T01:55:51;100850.06;;;13.29;69.03
29359;BME280;16347;53.232;6.556;2024-02-16T01:58:18;100844.41;;;13.23;68.99
29359;BME280;16347;53.232;6.556;2024-02-16T02:00:48;100838.66;;;13.18;69.25
29359;BME280;16347;53.232;6.556;2024-02-16T02:03:16;100839.66;;;13.17;69.17
29359;BME280;16347;53.232;6.556;2024-02-16T02:05:45;100839.16;;;13.13;69.47
29359;BME280;16347;53.232;6.556;2024-02-16T02:08:13;100840.19;;;13.04;69.74
29359;BME280;16347;53.232;6.556;2024-02-16T02:10:42;100835.25;;;13.08;69.42
29359;BME280;16347;53.232;6.556;2024-02-16T02:13:10;100825.81;;;13.26;68.92
29359;BME280;16347;53.232;6.556;2024-02-16T02:15:38;100829.19;;;13.36;68.77
29359;BME280;16347;53.232;6.556;2024-02-16T02:18:07;100824.16;;;13.17;68.53
29359;BME280;16347;53.232;6.556;2024-02-16T02:20:35;100823.22;;;13.33;68.34
29359;BME280;16347;53.232;6.556;2024-02-16T02:23:05;100823.28;;;13.25;68.88
29359;BME280;16347;53.232;6.556;2024-02-16T02:25:33;100817.16;;;13.07;69.02
29359;BME280;16347;53.232;6.556;2024-02-16T02:28:01;100820.41;;;13.18;68.95
29359;BME280;16347;53.232;6.556;2024-02-16T02:30:29;100814.25;;;13.16;68.99
29359;BME280;16347;53.232;6.556;2024-02-16T02:32:57;100810.69;;;13.16;69.02
29359;BME280;16347;53.232;6.556;2024-02-16T02:35:26;100814.44;;;13.15;68.70
29359;BME280;16347;53.232;6.556;2024-02-16T02:37:54;100811.00;;;13.21;68.90
29359;BME280;16347;53.232;6.556;2024-02-16T02:40:23;100804.72;;;13.12;69.11
29359;BME280;16347;53.232;6.556;2024-02-16T02:42:52;100802.47;;;13.08;69.08
29359;BME280;16347;53.232;6.556;2024-02-16T02:45:21;100800.63;;;13.00;69.42
29359;BME280;16347;53.232;6.556;2024-02-16T02:47:51;100788.34;;;13.04;69.32
29359;BME280;16347;53.232;6.556;2024-02-16T02:50:19;100780.16;;;13.04;69.34
29359;BME280;16347;53.232;6.556;2024-02-16T02:52:47;100790.91;;;13.06;69.37
29359;BME280;16347;53.232;6.556;2024-02-16T02:55:15;100784.25;;;13.00;69.08
29359;BME280;16347;53.232;6.556;2024-02-16T02:57:44;100792.78;;;12.97;69.36
29359;BME280;16347;53.232;6.556;2024-02-16T03:00:13;100785.66;;;12.88;69.39
29359;BME280;16347;53.232;6.556;2024-02-16T03:02:42;100781.56;;;12.92;69.78
29359;BME280;16347;53.232;6.556;2024-02-16T03:05:10;100782.88;;;12.96;69.85
29359;BME280;16347;53.232;6.556;2024-02-16T03:07:38;100781.03;;;12.97;69.47
29359;BME280;16347;53.232;6.556;2024-02-16T03:10:07;100782.41;;;12.93;69.98
29359;BME280;16347;53.232;6.556;2024-02-16T03:12:37;100786.88;;;12.77;70.23
29359;BME280;16347;53.232;6.556;2024-02-16T03:15:08;100783.44;;;12.83;70.12
29359;BME280;16347;53.232;6.556;2024-02-16T03:17:36;100776.31;;;12.82;69.89
29359;BME280;16347;53.232;6.556;2024-02-16T03:20:05;100773.75;;;12.81;69.95
29359;BME280;16347;53.232;6.556;2024-02-16T03:22:34;100769.50;;;12.78;70.27
29359;BME280;16347;53.232;6.556;2024-02-16T03:25:03;100770.50;;;12.85;70.03
29359;BME280;16347;53.232;6.556;2024-02-16T03:27:31;100768.09;;;12.91;69.70
29359;BME280;16347;53.232;6.556;2024-02-16T03:29:59;100766.03;;;12.93;70.15
29359;BME280;16347;53.232;6.556;2024-02-16T03:32:31;100765.41;;;12.82;70.22
29359;BME280;16347;53.232;6.556;2024-02-16T03:34:59;100759.91;;;12.91;70.12
29359;BME280;16347;53.232;6.556;2024-02-16T03:37:28;100752.94;;;12.80;70.23
29359;BME280;16347;53.232;6.556;2024-02-16T03:39:56;100749.84;;;12.83;70.31
29359;BME280;16347;53.232;6.556;2024-02-16T03:42:24;100753.06;;;12.86;70.06
29359;BME280;16347;53.232;6.556;2024-02-16T03:44:52;100753.63;;;12.82;70.03
29359;BME280;16347;53.232;6.556;2024-02-16T03:47:20;100759.44;;;12.71;70.34
29359;BME280;16347;53.232;6.556;2024-02-16T03:49:49;100753.13;;;12.78;70.26
29359;BME280;16347;53.232;6.556;2024-02-16T03:52:17;100765.69;;;12.96;69.81
29359;BME280;16347;53.232;6.556;2024-02-16T03:54:45;100772.38;;;12.85;69.71
29359;BME280;16347;53.232;6.556;2024-02-16T03:57:15;100772.03;;;12.80;69.89
29359;BME280;16347;53.232;6.556;2024-02-16T03:59:43;100761.66;;;12.75;70.09
29359;BME280;16347;53.232;6.556;2024-02-16T04:02:11;100765.25;;;12.68;70.18
29359;BME280;16347;53.232;6.556;2024-02-16T04:04:40;100762.81;;;12.81;70.01
29359;BME280;16347;53.232;6.556;2024-02-16T04:07:10;100764.91;;;12.79;69.91
29359;BME280;16347;53.232;6.556;2024-02-16T04:09:38;100760.97;;;12.81;69.63
29359;BME280;16347;53.232;6.556;2024-02-16T04:12:06;100759.44;;;12.71;70.07
29359;BME280;16347;53.232;6.556;2024-02-16T04:14:34;100760.81;;;12.67;70.14
29359;BME280;16347;53.232;6.556;2024-02-16T04:17:02;100747.53;;;12.72;70.19
29359;BME280;16347;53.232;6.556;2024-02-16T04:19:30;100751.34;;;12.94;69.75
29359;BME280;16347;53.232;6.556;2024-02-16T04:21:59;100755.66;;;12.88;69.30
29359;BME280;16347;53.232;6.556;2024-02-16T04:24:29;100740.16;;;12.80;69.93
29359;BME280;16347;53.232;6.556;2024-02-16T04:26:57;100746.13;;;12.76;69.93
29359;BME280;16347;53.232;6.556;2024-02-16T04:29:25;100757.88;;;12.76;69.77
29359;BME280;16347;53.232;6.556;2024-02-16T04:31:53;100745.44;;;12.74;69.95
29359;BME280;16347;53.232;6.556;2024-02-16T04:34:21;100745.66;;;12.72;69.86
29359;BME280;16347;53.232;6.556;2024-02-16T04:36:49;100743.88;;;12.79;69.68
29359;BME280;16347;53.232;6.556;2024-02-16T04:39:17;100753.19;;;12.62;70.11
29359;BME280;16347;53.232;6.556;2024-02-16T04:41:47;100749.56;;;12.70;70.00
29359;BME280;16347;53.232;6.556;2024-02-16T04:44:16;100755.91;;;12.62;70.16
29359;BME280;16347;53.232;6.556;2024-02-16T04:46:44;100752.81;;;12.65;70.13
29359;BME280;16347;53.232;6.556;2024-02-16T04:49:12;100754.16;;;12.69;70.18
29359;BME280;16347;53.232;6.556;2024-02-16T04:51:40;100756.72;;;12.63;70.03
29359;BME280;16347;53.232;6.556;2024-02-16T04:54:08;100763.72;;;12.65;69.98
29359;BME280;16347;53.232;6.556;2024-02-16T04:56:36;100755.50;;;12.73;69.74
29359;BME280;16347;53.232;6.556;2024-02-16T04:59:05;100745.16;;;12.61;70.04
29359;BME280;16347;53.232;6.556;2024-02-16T05:01:33;100743.44;;;12.68;70.19
29359;BME280;16347;53.232;6.556;2024-02-16T05:04:01;100739.00;;;12.67;70.09
29359;BME280;16347;53.232;6.556;2024-02-16T05:06:29;100745.16;;;12.69;69.88
29359;BME280;16347;53.232;6.556;2024-02-16T05:08:57;100740.69;;;12.68;69.63
29359;BME280;16347;53.232;6.556;2024-02-16T05:11:25;100748.03;;;12.67;69.64
29359;BME280;16347;53.232;6.556;2024-02-16T05:13:54;100762.53;;;12.60;69.80
29359;BME280;16347;53.232;6.556;2024-02-16T05:16:24;100753.00;;;12.56;70.01
29359;BME280;16347;53.232;6.556;2024-02-16T05:18:52;100750.91;;;12.74;69.81
29359;BME280;16347;53.232;6.556;2024-02-16T05:21:20;100747.88;;;12.69;69.72
29359;BME280;16347;53.232;6.556;2024-02-16T05:23:49;100735.94;;;12.62;69.89
29359;BME280;16347;53.232;6.556;2024-02-16T05:26:17;100737.47;;;12.64;69.99
29359;BME280;16347;53.232;6.556;2024-02-16T05:28:44;100734.59;;;12.50;69.96
29359;BME280;16347;53.232;6.556;2024-02-16T05:31:13;100729.09;;;12.66;69.88
29359;BME280;16347;53.232;6.556;2024-02-16T05:33:44;100727.91;;;12.68;69.85
29359;BME280;16347;53.232;6.556;2024-02-16T05:36:16;100731.16;;;12.72;69.69
29359;BME280;16347;53.232;6.556;2024-02-16T05:38:45;100724.69;;;12.65;69.65
29359;BME280;16347;53.232;6.556;2024-02-16T05:41:13;100720.97;;;12.50;70.02
29359;BME280;16347;53.232;6.556;2024-02-16T05:43:42;100728.59;;;12.70;69.93
29359;BME280;16347;53.232;6.556;2024-02-16T05:46:12;100721.25;;;12.63;69.98
29359;BME280;16347;53.232;6.556;2024-02-16T05:48:40;100724.19;;;12.61;69.78
29359;BME280;16347;53.232;6.556;2024-02-16T05:51:11;100729.63;;;12.61;69.83
29359;BME280;16347;53.232;6.556;2024-02-16T05:53:40;100723.34;;;12.61;69.85
29359;BME280;16347;53.232;6.556;2024-02-16T05:56:08;100720.09;;;12.57;69.76
29359;BME280;16347;53.232;6.556;2024-02-16T05:58:37;100713.63;;;12.58;69.98
29359;BME280;16347;53.232;6.556;2024-02-16T06:01:05;100718.75;;;12.53;69.91
29359;BME280;16347;53.232;6.556;2024-02-16T06:03:33;100707.09;;;12.75;69.98
29359;BME280;16347;53.232;6.556;2024-02-16T06:06:02;100711.72;;;12.67;69.60
29359;BME280;16347;53.232;6.556;2024-02-16T06:08:32;100707.25;;;12.74;69.40
29359;BME280;16347;53.232;6.556;2024-02-16T06:11:00;100701.09;;;12.80;68.80
29359;BME280;16347;53.232;6.556;2024-02-16T06:13:29;100706.53;;;12.80;68.93
29359;BME280;16347;53.232;6.556;2024-02-16T06:15:57;100710.47;;;12.77;68.84
29359;BME280;16347;53.232;6.556;2024-02-16T06:18:25;100709.84;;;12.67;68.98
29359;BME280;16347;53.232;6.556;2024-02-16T06:20:56;100720.75;;;12.59;69.21
29359;BME280;16347;53.232;6.556;2024-02-16T06:23:24;100723.16;;;12.62;69.50
29359;BME280;16347;53.232;6.556;2024-02-16T06:25:53;100720.03;;;12.73;69.35
29359;BME280;16347;53.232;6.556;2024-02-16T06:28:21;100721.41;;;12.69;69.03
29359;BME280;16347;53.232;6.556;2024-02-16T06:30:50;100717.03;;;12.60;69.47
29359;BME280;16347;53.232;6.556;2024-02-16T06:33:18;100710.34;;;12.63;69.37
29359;BME280;16347;53.232;6.556;2024-02-16T06:35:46;100712.78;;;12.50;69.51
29359;BME280;16347;53.232;6.556;2024-02-16T06:38:17;100717.94;;;12.45;70.10
29359;BME280;16347;53.232;6.556;2024-02-16T06:40:45;100726.25;;;12.51;69.92
29359;BME280;16347;53.232;6.556;2024-02-16T06:43:14;100733.59;;;12.51;69.58
29359;BME280;16347;53.232;6.556;2024-02-16T06:45:42;100741.56;;;12.60;69.83
29359;BME280;16347;53.232;6.556;2024-02-16T06:48:10;100740.00;;;12.66;69.25
29359;BME280;16347;53.232;6.556;2024-02-16T06:50:38;100736.31;;;12.51;69.45
29359;BME280;16347;53.232;6.556;2024-02-16T06:53:06;100738.19;;;12.50;69.92
29359;BME280;16347;53.232;6.556;2024-02-16T06:55:34;100738.69;;;12.46;69.74
29359;BME280;16347;53.232;6.556;2024-02-16T06:58:03;100741.25;;;12.47;69.75
29359;BME280;16347;53.232;6.556;2024-02-16T07:00:32;100749.63;;;12.38;70.45
29359;BME280;16347;53.232;6.556;2024-02-16T07:03:02;100745.03;;;12.38;70.35
29359;BME280;16347;53.232;6.556;2024-02-16T07:05:30;100745.19;;;12.45;70.18
29359;BME280;16347;53.232;6.556;2024-02-16T07:08:03;100750.66;;;12.45;69.92
29359;BME280;16347;53.232;6.556;2024-02-16T07:10:33;100754.38;;;12.44;70.23
29359;BME280;16347;53.232;6.556;2024-02-16T07:13:01;100749.94;;;12.51;69.85
29359;BME280;16347;53.232;6.556;2024-02-16T07:15:30;100751.50;;;12.37;70.07
29359;BME280;16347;53.232;6.556;2024-02-16T07:17:59;100750.81;;;12.43;70.19
29359;BME280;16347;53.232;6.556;2024-02-16T07:20:27;100748.59;;;12.47;70.35
29359;BME280;16347;53.232;6.556;2024-02-16T07:22:55;100750.50;;;12.38;70.27
29359;BME280;16347;53.232;6.556;2024-02-16T07:25:23;100762.56;;;12.44;70.43
29359;BME280;16347;53.232;6.556;2024-02-16T07:27:52;100769.38;;;12.40;70.99
29359;BME280;16347;53.232;6.556;2024-02-16T07:30:20;100772.78;;;12.50;70.32
29359;BME280;16347;53.232;6.556;2024-02-16T07:33:04;100771.41;;;12.54;70.06
29359;BME280;16347;53.232;6.556;2024-02-16T07:35:32;100771.06;;;12.57;69.90
29359;BME280;16347;53.232;6.556;2024-02-16T07:38:02;100774.34;;;12.52;70.20
29359;BME280;16347;53.232;6.556;2024-02-16T07:40:30;100777.41;;;12.41;70.49
29359;BME280;16347;53.232;6.556;2024-02-16T07:42:59;100771.09;;;12.49;70.51
29359;BME280;16347;53.232;6.556;2024-02-16T07:45:27;100775.50;;;12.50;70.03
29359;BME280;16347;53.232;6.556;2024-02-16T07:47:55;100781.47;;;12.53;70.21
29359;BME280;16347;53.232;6.556;2024-02-16T07:50:25;100770.25;;;12.40;70.75
29359;BME280;16347;53.232;6.556;2024-02-16T07:52:54;100777.56;;;12.40;70.75
29359;BME280;16347;53.232;6.556;2024-02-16T07:55:22;100774.16;;;12.54;70.48
29359;BME280;16347;53.232;6.556;2024-02-16T07:57:51;100778.78;;;12.45;70.42
29359;BME280;16347;53.232;6.556;2024-02-16T08:00:19;100776.56;;;12.49;70.29
29359;BME280;16347;53.232;6.556;2024-02-16T08:02:48;100772.94;;;12.56;70.36
29359;BME280;16347;53.232;6.556;2024-02-16T08:05:16;100769.53;;;12.54;70.46
29359;BME280;16347;53.232;6.556;2024-02-16T08:07:47;100762.88;;;12.57;70.43
29359;BME280;16347;53.232;6.556;2024-02-16T08:10:18;100767.28;;;12.66;70.25
29359;BME280;16347;53.232;6.556;2024-02-16T08:12:47;100763.88;;;12.72;70.28
29359;BME280;16347;53.232;6.556;2024-02-16T08:15:16;100762.69;;;12.66;69.87
29359;BME280;16347;53.232;6.556;2024-02-16T08:17:50;100765.06;;;12.69;70.22
29359;BME280;16347;53.232;6.556;2024-02-16T08:20:19;100765.59;;;12.57;70.51
29359;BME280;16347;53.232;6.556;2024-02-16T08:22:49;100767.97;;;12.68;70.26
29359;BME280;16347;53.232;6.556;2024-02-16T08:25:17;100776.53;;;12.57;70.42
29359;BME280;16347;53.232;6.556;2024-02-16T08:27:45;100766.63;;;12.56;70.54
29359;BME280;16347;53.232;6.556;2024-02-16T08:30:13;100786.06;;;12.61;70.51
29359;BME280;16347;53.232;6.556;2024-02-16T08:32:41;100783.34;;;12.61;70.73
29359;BME280;16347;53.232;6.556;2024-02-16T08:35:10;100783.81;;;12.80;70.06
29359;BME280;16347;53.232;6.556;2024-02-16T08:37:41;100785.88;;;12.70;70.08
29359;BME280;16347;53.232;6.556;2024-02-16T08:40:12;100785.38;;;12.75;70.26
29359;BME280;16347;53.232;6.556;2024-02-16T08:42:41;100782.28;;;12.70;70.37
29359;BME280;16347;53.232;6.556;2024-02-16T08:45:10;100786.06;;;12.69;70.58
29359;BME280;16347;53.232;6.556;2024-02-16T08:47:39;100785.53;;;12.73;70.71
29359;BME280;16347;53.232;6.556;2024-02-16T08:50:08;100791.84;;;12.66;70.89
29359;BME280;16347;53.232;6.556;2024-02-16T08:52:37;100790.31;;;12.71;70.84
29359;BME280;16347;53.232;6.556;2024-02-16T08:55:05;100799.50;;;12.70;71.27
29359;BME280;16347;53.232;6.556;2024-02-16T08:57:35;100809.91;;;12.67;71.35
29359;BME280;16347;53.232;6.556;2024-02-16T09:00:05;100805.47;;;12.74;70.89
29359;BME280;16347;53.232;6.556;2024-02-16T09:02:34;100804.47;;;12.75;70.86
29359;BME280;16347;53.232;6.556;2024-02-16T09:05:02;100820.63;;;12.84;71.07
29359;BME280;16347;53.232;6.556;2024-02-16T09:07:30;100821.84;;;12.74;71.15
29359;BME280;16347;53.232;6.556;2024-02-16T09:09:58;100817.59;;;12.71;71.45
29359;BME280;16347;53.232;6.556;2024-02-16T09:12:27;100814.84;;;12.79;71.65
29359;BME280;16347;53.232;6.556;2024-02-16T09:14:56;100820.44;;;12.94;71.07
29359;BME280;16347;53.232;6.556;2024-02-16T09:17:24;100817.72;;;12.86;71.31
29359;BME280;16347;53.232;6.556;2024-02-16T09:19:53;100814.50;;;12.82;71.38
29359;BME280;16347;53.232;6.556;2024-02-16T09:22:21;100812.81;;;12.73;71.87
29359;BME280;16347;53.232;6.556;2024-02-16T09:25:04;100818.56;;;12.86;71.66
29359;BME280;16347;53.232;6.556;2024-02-16T09:27:32;100834.59;;;12.90;71.69
29359;BME280;16347;53.232;6.556;2024-02-16T09:30:01;100839.53;;;12.94;71.69
29359;BME280;16347;53.232;6.556;2024-02-16T09:32:30;100829.28;;;13.04;71.44
29359;BME280;16347;53.232;6.556;2024-02-16T09:34:57;100838.31;;;13.05;71.20
29359;BME280;16347;53.232;6.556;2024-02-16T09:37:25;100839.53;;;13.10;71.53
29359;BME280;16347;53.232;6.556;2024-02-16T09:39:53;100843.44;;;13.00;71.67
29359;BME280;16347;53.232;6.556;2024-02-16T09:42:23;100852.47;;;13.08;71.73
29359;BME280;16347;53.232;6.556;2024-02-16T09:44:54;100856.06;;;13.17;71.70
29359;BME280;16347;53.232;6.556;2024-02-16T09:47:24;100861.34;;;13.18;71.53
29359;BME280;16347;53.232;6.556;2024-02-16T09:49:55;100862.88;;;13.13;71.71
29359;BME280;16347;53.232;6.556;2024-02-16T09:52:24;100867.47;;;13.20;71.84
29359;BME280;16347;53.232;6.556;2024-02-16T09:54:51;100868.34;;;13.21;71.92
29359;BME280;16347;53.232;6.556;2024-02-16T09:57:19;100874.81;;;13.28;71.50
29359;BME280;16347;53.232;6.556;2024-02-16T09:59:47;100871.91;;;13.21;71.93
29359;BME280;16347;53.232;6.556;2024-02-16T10:02:15;100881.13;;;13.28;71.50
29359;BME280;16347;53.232;6.556;2024-02-16T10:04:45;100902.06;;;13.44;70.88
29359;BME280;16347;53.232;6.556;2024-02-16T10:07:13;100883.31;;;13.33;71.40
29359;BME280;16347;53.232;6.556;2024-02-16T10:09:41;100889.38;;;13.59;70.90
29359;BME280;16347;53.232;6.556;2024-02-16T10:12:09;100892.13;;;13.51;70.94
29359;BME280;16347;53.232;6.556;2024-02-16T10:14:38;100883.78;;;13.53;70.87
29359;BME280;16347;53.232;6.556;2024-02-16T10:17:08;100880.34;;;13.51;71.45
29359;BME280;16347;53.232;6.556;2024-02-16T10:19:36;100884.81;;;13.44;71.69
29359;BME280;16347;53.232;6.556;2024-02-16T10:22:10;100899.16;;;13.46;72.16
29359;BME280;16347;53.232;6.556;2024-02-16T10:24:40;100917.13;;;13.24;72.71
29359;BME280;16347;53.232;6.556;2024-02-16T10:27:14;100915.97;;;13.18;73.23
29359;BME280;16347;53.232;6.556;2024-02-16T10:29:44;100899.53;;;13.26;72.96
29359;BME280;16347;53.232;6.556;2024-02-16T10:32:12;100901.91;;;13.38;72.58
29359;BME280;16347;53.232;6.556;2024-02-16T10:34:41;100907.00;;;13.49;72.63
29359;BME280;16347;53.232;6.556;2024-02-16T10:37:11;100919.16;;;13.38;72.70
29359;BME280;16347;53.232;6.556;2024-02-16T10:39:40;100922.91;;;13.37;73.14
29359;BME280;16347;53.232;6.556;2024-02-16T10:42:09;100915.41;;;13.39;73.28
29359;BME280;16347;53.232;6.556;2024-02-16T10:44:39;100926.47;;;13.46;72.90
29359;BME280;16347;53.232;6.556;2024-02-16T10:47:09;100931.94;;;13.38;73.19
29359;BME280;16347;53.232;6.556;2024-02-16T10:49:37;100933.16;;;13.35;73.51
29359;BME280;16347;53.232;6.556;2024-02-16T10:52:06;100935.28;;;13.64;73.13
29359;BME280;16347;53.232;6.556;2024-02-16T10:54:37;100947.03;;;13.72;72.57
29359;BME280;16347;53.232;6.556;2024-02-16T10:57:07;100943.16;;;13.59;73.00
29359;BME280;16347;53.232;6.556;2024-02-16T10:59:43;100942.81;;;13.54;73.77
29359;BME280;16347;53.232;6.556;2024-02-16T11:02:13;100938.25;;;13.46;74.10
29359;BME280;16347;53.232;6.556;2024-02-16T11:04:46;100963.00;;;13.45;74.45
29359;BME280;16347;53.232;6.556;2024-02-16T11:07:15;100964.56;;;13.39;74.60
29359;BME280;16347;53.232;6.556;2024-02-16T11:09:46;100977.19;;;13.32;75.40
29359;BME280;16347;53.232;6.556;2024-02-16T11:12:15;100969.19;;;13.22;75.39
29359;BME280;16347;53.232;6.556;2024-02-16T11:14:44;100971.06;;;13.14;75.56
29359;BME280;16347;53.232;6.556;2024-02-16T11:17:15;100990.00;;;12.99;76.65
29359;BME280;16347;53.232;6.556;2024-02-16T11:19:44;100984.00;;;12.63;77.95
29359;BME280;16347;53.232;6.556;2024-02-16T11:22:15;101003.97;;;12.72;78.96
29359;BME280;16347;53.232;6.556;2024-02-16T11:24:47;101000.22;;;12.81;78.80
29359;BME280;16347;53.232;6.556;2024-02-16T11:27:16;101016.53;;;12.49;80.57
29359;BME280;16347;53.232;6.556;2024-02-16T11:29:49;101033.06;;;12.47;81.40
29359;BME280;16347;53.232;6.556;2024-02-16T11:32:18;101044.28;;;12.36;82.30
29359;BME280;16347;53.232;6.556;2024-02-16T11:34:46;101025.03;;;12.46;81.96
29359;BME280;16347;53.232;6.556;2024-02-16T11:37:15;101044.59;;;12.25;83.37
29359;BME280;16347;53.232;6.556;2024-02-16T11:39:45;101037.97;;;12.35;83.36
29359;BME280;16347;53.232;6.556;2024-02-16T11:42:19;101047.03;;;12.44;83.46
29359;BME280;16347;53.232;6.556;2024-02-16T11:44:51;101054.13;;;12.21;84.15
29359;BME280;16347;53.232;6.556;2024-02-16T11:47:20;101052.06;;;12.23;83.99
29359;BME280;16347;53.232;6.556;2024-02-16T11:50:01;101058.72;;;12.20;84.35
29359;BME280;16347;53.232;6.556;2024-02-16T11:52:30;101068.22;;;12.16;84.83
29359;BME280;16347;53.232;6.556;2024-02-16T11:54:59;101078.97;;;12.18;84.93
29359;BME280;16347;53.232;6.556;2024-02-16T11:57:31;101076.47;;;11.99;85.07
29359;BME280;16347;53.232;6.556;2024-02-16T12:00:00;101079.44;;;12.05;85.68
29359;BME280;16347;53.232;6.556;2024-02-16T12:02:30;101087.03;;;11.94;86.23
29359;BME280;16347;53.232;6.556;2024-02-16T12:04:59;101094.94;;;12.05;86.00
29359;BME280;16347;53.232;6.556;2024-02-16T12:07:30;101098.34;;;12.07;85.89
29359;BME280;16347;53.232;6.556;2024-02-16T12:10:02;101097.53;;;12.22;85.25
29359;BME280;16347;53.232;6.556;2024-02-16T12:12:32;101088.59;;;12.38;84.77
29359;BME280;16347;53.232;6.556;2024-02-16T12:15:01;101087.59;;;12.47;84.45
29359;BME280;16347;53.232;6.556;2024-02-16T12:17:30;101094.06;;;12.46;84.16
29359;BME280;16347;53.232;6.556;2024-02-16T12:19:58;101086.88;;;12.37;83.57
29359;BME280;16347;53.232;6.556;2024-02-16T12:22:27;101091.47;;;12.37;84.02
29359;BME280;16347;53.232;6.556;2024-02-16T12:24:55;101096.97;;;12.45;84.04
29359;BME280;16347;53.232;6.556;2024-02-16T12:27:28;101078.03;;;12.43;84.15
29359;BME280;16347;53.232;6.556;2024-02-16T12:29:56;101073.44;;;12.44;83.75
29359;BME280;16347;53.232;6.556;2024-02-16T12:32:25;101076.88;;;12.54;83.28
29359;BME280;16347;53.232;6.556;2024-02-16T12:34:53;101090.56;;;12.62;83.16
29359;BME280;16347;53.232;6.556;2024-02-16T12:37:21;101089.38;;;12.64;82.83
29359;BME280;16347;53.232;6.556;2024-02-16T12:39:49;101112.91;;;12.65;82.20
29359;BME280;16347;53.232;6.556;2024-02-16T12:42:17;101122.31;;;12.71;82.48
29359;BME280;16347;53.232;6.556;2024-02-16T12:44:46;101134.53;;;12.59;82.29
29359;BME280;16347;53.232;6.556;2024-02-16T12:47:14;101143.16;;;12.46;83.10
29359;BME280;16347;53.232;6.556;2024-02-16T12:49:42;101139.75;;;12.44;83.36
29359;BME280;16347;53.232;6.556;2024-02-16T12:52:10;101150.88;;;12.51;83.65
29359;BME280;16347;53.232;6.556;2024-02-16T12:54:38;101160.44;;;12.55;83.32
29359;BME280;16347;53.232;6.556;2024-02-16T12:57:12;101160.75;;;12.52;83.53
29359;BME280;16347;53.232;6.556;2024-02-16T12:59:41;101161.78;;;12.51;83.34